This is the latest recevied weather packets stored in our database for station/object OE-11331. If no packets are shown the sender has not sent any weather packets the latest 10 day(s).
| Time | Temp. | Humidity | Pressure | Rain* | Wind** | Luminosity | Snow |
|---|---|---|---|---|---|---|---|
| 1787980306 | 20° C | 55% | 1015.7 hPa | 0 mm | - | 22 W/m² | - |
| 1787979933 | 20° C | 56% | 1015.6 hPa | 0 mm | - | 11 W/m² | - |
| 1787979334 | 20° C | 56% | 1015.4 hPa | 0 mm | - | 11 W/m² | - |
| 1787978507 | 20° C | 57% | 1015.7 hPa | 0 mm | - | 11 W/m² | - |
| 1787978133 | 20° C | 57% | 1015.4 hPa | 0 mm | - | 0 W/m² | - |
| 1787977533 | 20° C | 57% | 1015.6 hPa | 0 mm | - | 0 W/m² | - |
| 1787976707 | 20° C | 58% | 1015.6 hPa | 0 mm | - | 0 W/m² | - |
| 1787976334 | 20° C | 59% | 1015.6 hPa | 0 mm | - | 0 W/m² | - |
| 1787975734 | 20° C | 59% | 1015.3 hPa | 0 mm | - | 0 W/m² | - |
| 1787975134 | 20.56° C | 58% | 1015.2 hPa | 0 mm | - | 0 W/m² | - |
| 1787974533 | 21.11° C | 58% | 1014.6 hPa | 0 mm | - | 0 W/m² | - |
| 1787973934 | 21.11° C | 66% | 1014.3 hPa | 0 mm | - | 0 W/m² | - |
| 1787973106 | 20.56° C | 76% | 1014.4 hPa | 0 mm | - | 0 W/m² | - |
| 1787972734 | 21.11° C | 68% | 1013.8 hPa | 0 mm | - | 0 W/m² | - |
| 1787972134 | 19.44° C | 82% | 1013.9 hPa | 0 mm | - | 0 W/m² | - |
| 1787971307 | 19.44° C | 81% | 1013.5 hPa | 0 mm | - | 0 W/m² | - |
| 1787970934 | 18.89° C | 87% | 1013.3 hPa | 0 mm | - | 0 W/m² | - |
| 1787970334 | 18.89° C | 89% | 1012.9 hPa | 0 mm | - | 0 W/m² | - |
| 1787969506 | 18.89° C | 89% | 1012.9 hPa | 0 mm | - | 0 W/m² | - |
| 1787969133 | 19.44° C | 85% | 1012.5 hPa | 0.25 mm | - | 0 W/m² | - |
| 1787968534 | 18.33° C | 88% | 1012.8 hPa | 0.25 mm | - | 0 W/m² | - |
| 1787967706 | 20° C | 82% | 1012.7 hPa | 0.25 mm | - | 0 W/m² | - |
| 1787967334 | 20° C | 83% | 1012.6 hPa | 0.25 mm | - | 0 W/m² | - |
| 1787966734 | 20° C | 82% | 1012.5 hPa | 0.25 mm | - | 0 W/m² | - |
| 1787965907 | 21.11° C | 77% | 1012.2 hPa | 0.25 mm | - | 0 W/m² | - |
* Rain latest hour (hover to see other rain measurements)
** Current wind speed in m/s (hover to see current wind gust speed)